sensor_id;sensor_type;location;lat;lon;timestamp;temperature;humidity
7077;DHT22;3579;48.956;9.154;2023-04-03T00:01:58;16.40;55.40
7077;DHT22;3579;48.956;9.154;2023-04-03T00:04:24;16.40;55.40
7077;DHT22;3579;48.956;9.154;2023-04-03T00:06:50;16.40;55.40
7077;DHT22;3579;48.956;9.154;2023-04-03T00:09:17;16.40;55.40
7077;DHT22;3579;48.956;9.154;2023-04-03T00:11:43;16.40;55.20
7077;DHT22;3579;48.956;9.154;2023-04-03T00:14:09;16.40;55.20
7077;DHT22;3579;48.956;9.154;2023-04-03T00:16:35;16.50;55.30
7077;DHT22;3579;48.956;9.154;2023-04-03T00:19:01;16.50;55.20
7077;DHT22;3579;48.956;9.154;2023-04-03T00:21:27;16.50;55.20
7077;DHT22;3579;48.956;9.154;2023-04-03T00:23:53;16.50;55.10
7077;DHT22;3579;48.956;9.154;2023-04-03T00:26:19;16.50;55.10
7077;DHT22;3579;48.956;9.154;2023-04-03T00:28:45;16.50;55.10
7077;DHT22;3579;48.956;9.154;2023-04-03T00:31:14;16.50;55.00
7077;DHT22;3579;48.956;9.154;2023-04-03T00:33:40;16.50;55.00
7077;DHT22;3579;48.956;9.154;2023-04-03T00:36:10;16.50;55.10
7077;DHT22;3579;48.956;9.154;2023-04-03T00:38:36;16.50;55.00
7077;DHT22;3579;48.956;9.154;2023-04-03T00:41:03;16.50;55.60
7077;DHT22;3579;48.956;9.154;2023-04-03T00:43:29;16.50;55.10
7077;DHT22;3579;48.956;9.154;2023-04-03T00:45:56;16.50;55.10
7077;DHT22;3579;48.956;9.154;2023-04-03T00:48:31;16.50;55.10
7077;DHT22;3579;48.956;9.154;2023-04-03T00:50:58;16.50;55.10
7077;DHT22;3579;48.956;9.154;2023-04-03T00:53:33;16.50;55.10
7077;DHT22;3579;48.956;9.154;2023-04-03T00:56:00;16.50;55.20
7077;DHT22;3579;48.956;9.154;2023-04-03T00:58:33;16.40;55.20
7077;DHT22;3579;48.956;9.154;2023-04-03T01:01:05;16.40;55.20
7077;DHT22;3579;48.956;9.154;2023-04-03T01:03:32;16.40;55.30
7077;DHT22;3579;48.956;9.154;2023-04-03T01:05:58;16.40;55.30
7077;DHT22;3579;48.956;9.154;2023-04-03T01:08:25;16.40;55.40
7077;DHT22;3579;48.956;9.154;2023-04-03T01:10:51;16.40;55.40
7077;DHT22;3579;48.956;9.154;2023-04-03T01:13:30;16.40;55.40
7077;DHT22;3579;48.956;9.154;2023-04-03T01:15:57;16.40;55.40
7077;DHT22;3579;48.956;9.154;2023-04-03T01:18:26;16.40;55.40
7077;DHT22;3579;48.956;9.154;2023-04-03T01:26:04;16.40;55.20
7077;DHT22;3579;48.956;9.154;2023-04-03T01:28:33;16.40;55.80
7077;DHT22;3579;48.956;9.154;2023-04-03T01:33:35;16.40;55.20
7077;DHT22;3579;48.956;9.154;2023-04-03T01:36:03;16.40;55.20
7077;DHT22;3579;48.956;9.154;2023-04-03T01:38:29;16.40;55.20
7077;DHT22;3579;48.956;9.154;2023-04-03T01:40:55;16.40;55.20
7077;DHT22;3579;48.956;9.154;2023-04-03T01:43:21;16.50;55.10
7077;DHT22;3579;48.956;9.154;2023-04-03T01:45:48;16.50;55.20
7077;DHT22;3579;48.956;9.154;2023-04-03T01:48:16;16.50;55.20
7077;DHT22;3579;48.956;9.154;2023-04-03T01:50:42;16.40;55.10
7077;DHT22;3579;48.956;9.154;2023-04-03T01:53:08;16.40;55.10
7077;DHT22;3579;48.956;9.154;2023-04-03T01:55:34;16.40;55.10
7077;DHT22;3579;48.956;9.154;2023-04-03T01:58:00;16.40;55.20
7077;DHT22;3579;48.956;9.154;2023-04-03T02:00:26;16.40;55.20
7077;DHT22;3579;48.956;9.154;2023-04-03T02:02:52;16.40;55.30
7077;DHT22;3579;48.956;9.154;2023-04-03T02:05:18;16.40;55.30
7077;DHT22;3579;48.956;9.154;2023-04-03T02:07:45;16.40;55.30
7077;DHT22;3579;48.956;9.154;2023-04-03T02:10:12;16.30;55.20
7077;DHT22;3579;48.956;9.154;2023-04-03T02:12:38;16.30;55.30
7077;DHT22;3579;48.956;9.154;2023-04-03T02:15:04;16.30;55.30
7077;DHT22;3579;48.956;9.154;2023-04-03T02:17:30;16.30;55.20
7077;DHT22;3579;48.956;9.154;2023-04-03T02:19:57;16.30;55.20
7077;DHT22;3579;48.956;9.154;2023-04-03T02:22:23;16.30;55.20
7077;DHT22;3579;48.956;9.154;2023-04-03T02:24:49;16.30;55.20
7077;DHT22;3579;48.956;9.154;2023-04-03T02:27:15;16.30;55.20
7077;DHT22;3579;48.956;9.154;2023-04-03T02:29:41;16.30;55.10
7077;DHT22;3579;48.956;9.154;2023-04-03T02:32:07;16.30;55.10
7077;DHT22;3579;48.956;9.154;2023-04-03T02:34:33;16.30;55.00
7077;DHT22;3579;48.956;9.154;2023-04-03T02:36:59;16.30;55.50
7077;DHT22;3579;48.956;9.154;2023-04-03T02:39:25;16.30;54.90
7077;DHT22;3579;48.956;9.154;2023-04-03T02:41:51;16.30;54.90
7077;DHT22;3579;48.956;9.154;2023-04-03T02:44:18;16.30;54.90
7077;DHT22;3579;48.956;9.154;2023-04-03T02:46:44;16.30;54.90
7077;DHT22;3579;48.956;9.154;2023-04-03T02:49:10;16.30;54.90
7077;DHT22;3579;48.956;9.154;2023-04-03T02:51:36;16.30;55.00
7077;DHT22;3579;48.956;9.154;2023-04-03T02:54:02;16.30;55.00
7077;DHT22;3579;48.956;9.154;2023-04-03T02:56:28;16.20;54.90
7077;DHT22;3579;48.956;9.154;2023-04-03T02:58:54;16.30;55.00
7077;DHT22;3579;48.956;9.154;2023-04-03T03:01:21;16.30;54.90
7077;DHT22;3579;48.956;9.154;2023-04-03T03:03:47;16.20;54.90
7077;DHT22;3579;48.956;9.154;2023-04-03T03:06:15;16.10;54.90
7077;DHT22;3579;48.956;9.154;2023-04-03T03:08:42;16.20;55.00
7077;DHT22;3579;48.956;9.154;2023-04-03T03:11:08;16.20;55.10
7077;DHT22;3579;48.956;9.154;2023-04-03T03:13:34;16.10;55.00
7077;DHT22;3579;48.956;9.154;2023-04-03T03:16:01;16.20;55.00
7077;DHT22;3579;48.956;9.154;2023-04-03T03:18:27;16.20;55.10
7077;DHT22;3579;48.956;9.154;2023-04-03T03:20:55;16.10;55.00
7077;DHT22;3579;48.956;9.154;2023-04-03T03:23:23;16.20;55.10
7077;DHT22;3579;48.956;9.154;2023-04-03T03:25:49;16.20;55.00
7077;DHT22;3579;48.956;9.154;2023-04-03T03:28:15;16.20;54.90
7077;DHT22;3579;48.956;9.154;2023-04-03T03:30:41;16.20;55.40
7077;DHT22;3579;48.956;9.154;2023-04-03T03:33:07;16.20;54.90
7077;DHT22;3579;48.956;9.154;2023-04-03T03:35:33;16.30;55.00
7077;DHT22;3579;48.956;9.154;2023-04-03T03:37:59;16.20;54.80
7077;DHT22;3579;48.956;9.154;2023-04-03T03:40:25;16.20;54.80
7077;DHT22;3579;48.956;9.154;2023-04-03T03:42:51;16.20;54.80
7077;DHT22;3579;48.956;9.154;2023-04-03T03:45:17;16.20;54.80
7077;DHT22;3579;48.956;9.154;2023-04-03T03:47:43;16.20;54.80
7077;DHT22;3579;48.956;9.154;2023-04-03T03:50:09;16.20;54.70
7077;DHT22;3579;48.956;9.154;2023-04-03T03:52:35;16.20;54.70
7077;DHT22;3579;48.956;9.154;2023-04-03T03:55:01;16.20;54.70
7077;DHT22;3579;48.956;9.154;2023-04-03T03:57:27;16.20;54.80
7077;DHT22;3579;48.956;9.154;2023-04-03T03:59:54;16.20;54.80
7077;DHT22;3579;48.956;9.154;2023-04-03T04:02:20;16.10;54.80
7077;DHT22;3579;48.956;9.154;2023-04-03T04:04:46;16.20;54.80
7077;DHT22;3579;48.956;9.154;2023-04-03T04:07:13;16.10;54.80
7077;DHT22;3579;48.956;9.154;2023-04-03T04:09:39;16.20;54.80
7077;DHT22;3579;48.956;9.154;2023-04-03T04:12:05;16.10;54.80
7077;DHT22;3579;48.956;9.154;2023-04-03T04:14:31;16.10;54.90
7077;DHT22;3579;48.956;9.154;2023-04-03T04:16:57;16.10;54.90
7077;DHT22;3579;48.956;9.154;2023-04-03T04:19:23;16.10;55.00
7077;DHT22;3579;48.956;9.154;2023-04-03T04:21:49;16.10;55.00
7077;DHT22;3579;48.956;9.154;2023-04-03T04:24:16;16.10;55.10
7077;DHT22;3579;48.956;9.154;2023-04-03T04:26:42;16.10;55.00
7077;DHT22;3579;48.956;9.154;2023-04-03T04:29:09;16.00;54.80
7077;DHT22;3579;48.956;9.154;2023-04-03T04:31:36;16.10;54.80
7077;DHT22;3579;48.956;9.154;2023-04-03T04:34:02;16.10;54.80
7077;DHT22;3579;48.956;9.154;2023-04-03T04:36:28;16.10;54.80
7077;DHT22;3579;48.956;9.154;2023-04-03T04:38:54;16.10;54.80
7077;DHT22;3579;48.956;9.154;2023-04-03T04:41:21;16.10;54.80
7077;DHT22;3579;48.956;9.154;2023-04-03T04:43:49;16.10;54.80
7077;DHT22;3579;48.956;9.154;2023-04-03T04:46:15;16.10;54.80
7077;DHT22;3579;48.956;9.154;2023-04-03T04:48:41;16.20;54.80
7077;DHT22;3579;48.956;9.154;2023-04-03T04:51:07;16.10;54.70
7077;DHT22;3579;48.956;9.154;2023-04-03T04:53:33;16.20;54.80
7077;DHT22;3579;48.956;9.154;2023-04-03T04:55:59;16.00;54.70
7077;DHT22;3579;48.956;9.154;2023-04-03T04:58:25;16.10;54.80
7077;DHT22;3579;48.956;9.154;2023-04-03T05:01:02;16.10;54.90
7077;DHT22;3579;48.956;9.154;2023-04-03T05:03:28;16.10;54.90
7077;DHT22;3579;48.956;9.154;2023-04-03T05:05:54;16.10;55.00
7077;DHT22;3579;48.956;9.154;2023-04-03T05:08:21;16.10;55.00
7077;DHT22;3579;48.956;9.154;2023-04-03T05:10:47;16.10;55.00
7077;DHT22;3579;48.956;9.154;2023-04-03T05:13:14;16.00;54.90
7077;DHT22;3579;48.956;9.154;2023-04-03T05:15:40;16.00;55.00
7077;DHT22;3579;48.956;9.154;2023-04-03T05:18:06;16.00;55.00
7077;DHT22;3579;48.956;9.154;2023-04-03T05:20:33;16.00;55.10
7077;DHT22;3579;48.956;9.154;2023-04-03T05:22:59;16.00;55.10
7077;DHT22;3579;48.956;9.154;2023-04-03T05:25:25;16.00;55.10
7077;DHT22;3579;48.956;9.154;2023-04-03T05:27:52;16.10;55.00
7077;DHT22;3579;48.956;9.154;2023-04-03T05:30:18;16.10;54.90
7077;DHT22;3579;48.956;9.154;2023-04-03T05:32:44;16.10;54.80
7077;DHT22;3579;48.956;9.154;2023-04-03T05:35:11;16.20;54.80
7077;DHT22;3579;48.956;9.154;2023-04-03T05:37:39;16.20;54.70
7077;DHT22;3579;48.956;9.154;2023-04-03T05:40:07;16.20;54.60
7077;DHT22;3579;48.956;9.154;2023-04-03T05:42:34;16.20;54.70
7077;DHT22;3579;48.956;9.154;2023-04-03T05:45:00;16.20;54.70
7077;DHT22;3579;48.956;9.154;2023-04-03T05:47:27;16.20;54.60
7077;DHT22;3579;48.956;9.154;2023-04-03T05:49:53;16.20;54.70
7077;DHT22;3579;48.956;9.154;2023-04-03T05:52:30;16.30;54.80
7077;DHT22;3579;48.956;9.154;2023-04-03T05:54:57;16.20;54.70
7077;DHT22;3579;48.956;9.154;2023-04-03T05:57:24;16.30;54.80
7077;DHT22;3579;48.956;9.154;2023-04-03T05:59:50;16.30;54.80
7077;DHT22;3579;48.956;9.154;2023-04-03T06:02:19;16.30;54.80
7077;DHT22;3579;48.956;9.154;2023-04-03T06:04:46;16.30;54.70
7077;DHT22;3579;48.956;9.154;2023-04-03T06:07:15;16.30;54.80
7077;DHT22;3579;48.956;9.154;2023-04-03T06:09:42;16.30;54.80
7077;DHT22;3579;48.956;9.154;2023-04-03T06:12:09;16.30;54.90
7077;DHT22;3579;48.956;9.154;2023-04-03T06:14:35;16.30;54.90
7077;DHT22;3579;48.956;9.154;2023-04-03T06:17:01;16.30;54.90
7077;DHT22;3579;48.956;9.154;2023-04-03T06:19:28;16.30;54.90
7077;DHT22;3579;48.956;9.154;2023-04-03T06:21:54;16.30;54.80
7077;DHT22;3579;48.956;9.154;2023-04-03T06:24:21;16.30;54.60
7077;DHT22;3579;48.956;9.154;2023-04-03T06:26:50;16.40;54.60
7077;DHT22;3579;48.956;9.154;2023-04-03T06:29:19;16.40;54.40
7077;DHT22;3579;48.956;9.154;2023-04-03T06:31:46;16.40;54.20
7077;DHT22;3579;48.956;9.154;2023-04-03T06:34:13;16.50;54.00
7077;DHT22;3579;48.956;9.154;2023-04-03T06:36:39;16.50;53.70
7077;DHT22;3579;48.956;9.154;2023-04-03T06:41:33;16.60;53.40
7077;DHT22;3579;48.956;9.154;2023-04-03T06:43:59;16.60;53.30
7077;DHT22;3579;48.956;9.154;2023-04-03T06:46:26;16.70;53.10
7077;DHT22;3579;48.956;9.154;2023-04-03T06:48:53;16.70;53.00
7077;DHT22;3579;48.956;9.154;2023-04-03T06:51:28;16.80;52.80
7077;DHT22;3579;48.956;9.154;2023-04-03T06:53:58;16.80;52.70
7077;DHT22;3579;48.956;9.154;2023-04-03T06:56:25;16.80;52.70
7077;DHT22;3579;48.956;9.154;2023-04-03T06:58:52;16.80;52.60
7077;DHT22;3579;48.956;9.154;2023-04-03T07:01:20;16.80;52.50
7077;DHT22;3579;48.956;9.154;2023-04-03T07:03:47;16.80;52.50
7077;DHT22;3579;48.956;9.154;2023-04-03T07:06:15;16.90;52.60
7077;DHT22;3579;48.956;9.154;2023-04-03T07:08:42;16.90;52.50
7077;DHT22;3579;48.956;9.154;2023-04-03T07:11:10;16.90;52.70
7077;DHT22;3579;48.956;9.154;2023-04-03T07:13:36;16.90;52.50
7077;DHT22;3579;48.956;9.154;2023-04-03T07:16:03;17.00;52.50
7077;DHT22;3579;48.956;9.154;2023-04-03T07:18:34;17.20;52.60
7077;DHT22;3579;48.956;9.154;2023-04-03T07:21:00;17.30;52.20
7077;DHT22;3579;48.956;9.154;2023-04-03T07:23:27;17.50;52.10
7077;DHT22;3579;48.956;9.154;2023-04-03T07:25:53;17.70;52.60
7077;DHT22;3579;48.956;9.154;2023-04-03T07:28:21;18.10;52.30
7077;DHT22;3579;48.956;9.154;2023-04-03T07:30:51;18.10;52.10
7077;DHT22;3579;48.956;9.154;2023-04-03T07:33:18;18.30;52.30
7077;DHT22;3579;48.956;9.154;2023-04-03T07:35:45;17.50;51.60
7077;DHT22;3579;48.956;9.154;2023-04-03T07:38:12;18.50;52.60
7077;DHT22;3579;48.956;9.154;2023-04-03T07:40:38;18.50;52.40
7077;DHT22;3579;48.956;9.154;2023-04-03T07:43:05;18.70;52.30
7077;DHT22;3579;48.956;9.154;2023-04-03T07:45:34;18.70;52.30
7077;DHT22;3579;48.956;9.154;2023-04-03T07:48:00;18.80;52.30
7077;DHT22;3579;48.956;9.154;2023-04-03T07:50:27;18.90;52.20
7077;DHT22;3579;48.956;9.154;2023-04-03T07:52:54;19.00;52.50
7077;DHT22;3579;48.956;9.154;2023-04-03T07:55:22;19.20;52.00
7077;DHT22;3579;48.956;9.154;2023-04-03T07:57:48;19.40;52.00
7077;DHT22;3579;48.956;9.154;2023-04-03T08:00:15;19.50;51.70
7077;DHT22;3579;48.956;9.154;2023-04-03T08:02:44;19.60;51.50
7077;DHT22;3579;48.956;9.154;2023-04-03T08:05:10;19.60;51.30
7077;DHT22;3579;48.956;9.154;2023-04-03T08:07:37;19.80;51.20
7077;DHT22;3579;48.956;9.154;2023-04-03T08:10:04;19.80;50.60
7077;DHT22;3579;48.956;9.154;2023-04-03T08:12:30;19.80;50.50
7077;DHT22;3579;48.956;9.154;2023-04-03T08:14:59;19.90;50.90
7077;DHT22;3579;48.956;9.154;2023-04-03T08:17:26;20.00;50.80
7077;DHT22;3579;48.956;9.154;2023-04-03T08:19:53;20.10;50.80
7077;DHT22;3579;48.956;9.154;2023-04-03T08:22:19;20.20;50.60
7077;DHT22;3579;48.956;9.154;2023-04-03T08:24:46;20.30;50.50
7077;DHT22;3579;48.956;9.154;2023-04-03T08:27:13;20.40;50.40
7077;DHT22;3579;48.956;9.154;2023-04-03T08:29:39;20.50;50.40
7077;DHT22;3579;48.956;9.154;2023-04-03T08:32:05;20.60;50.70
7077;DHT22;3579;48.956;9.154;2023-04-03T08:34:32;20.70;50.10
7077;DHT22;3579;48.956;9.154;2023-04-03T08:37:01;20.70;49.90
7077;DHT22;3579;48.956;9.154;2023-04-03T08:39:27;20.80;50.00
7077;DHT22;3579;48.956;9.154;2023-04-03T08:41:57;20.90;50.00
7077;DHT22;3579;48.956;9.154;2023-04-03T08:50:29;21.10;49.90
7077;DHT22;3579;48.956;9.154;2023-04-03T08:52:58;21.20;49.80
7077;DHT22;3579;48.956;9.154;2023-04-03T08:55:29;21.20;49.70
7077;DHT22;3579;48.956;9.154;2023-04-03T08:58:03;21.30;49.80
7077;DHT22;3579;48.956;9.154;2023-04-03T09:00:45;21.30;49.70
7077;DHT22;3579;48.956;9.154;2023-04-03T09:03:13;21.40;49.70
7077;DHT22;3579;48.956;9.154;2023-04-03T09:08:37;21.40;49.50
7077;DHT22;3579;48.956;9.154;2023-04-03T09:11:25;21.40;49.10
7077;DHT22;3579;48.956;9.154;2023-04-03T09:14:07;21.50;49.40
7077;DHT22;3579;48.956;9.154;2023-04-03T09:16:56;21.60;49.40
7077;DHT22;3579;48.956;9.154;2023-04-03T09:22:17;21.80;49.20
7077;DHT22;3579;48.956;9.154;2023-04-03T09:24:49;21.90;48.80
7077;DHT22;3579;48.956;9.154;2023-04-03T09:27:16;21.80;48.80
7077;DHT22;3579;48.956;9.154;2023-04-03T09:29:43;21.80;49.20
7077;DHT22;3579;48.956;9.154;2023-04-03T09:32:31;21.80;49.20
7077;DHT22;3579;48.956;9.154;2023-04-03T09:37:50;21.90;48.90
7077;DHT22;3579;48.956;9.154;2023-04-03T09:42:59;22.20;48.90
7077;DHT22;3579;48.956;9.154;2023-04-03T09:45:28;22.20;49.00
7077;DHT22;3579;48.956;9.154;2023-04-03T09:48:21;22.20;48.90
7077;DHT22;3579;48.956;9.154;2023-04-03T09:50:56;22.30;48.90
7077;DHT22;3579;48.956;9.154;2023-04-03T09:56:04;22.40;48.80
7077;DHT22;3579;48.956;9.154;2023-04-03T09:58:40;22.40;48.80
7077;DHT22;3579;48.956;9.154;2023-04-03T10:01:37;22.40;48.60
7077;DHT22;3579;48.956;9.154;2023-04-03T10:04:05;22.40;48.50
7077;DHT22;3579;48.956;9.154;2023-04-03T10:06:34;22.40;48.30
7077;DHT22;3579;48.956;9.154;2023-04-03T10:09:26;22.50;48.60
7077;DHT22;3579;48.956;9.154;2023-04-03T10:14:25;22.60;48.80
7077;DHT22;3579;48.956;9.154;2023-04-03T10:31:19;22.70;48.70
7077;DHT22;3579;48.956;9.154;2023-04-03T10:36:38;22.80;48.80
7077;DHT22;3579;48.956;9.154;2023-04-03T10:44:20;23.80;49.40
7077;DHT22;3579;48.956;9.154;2023-04-03T10:49:44;23.00;48.60
7077;DHT22;3579;48.956;9.154;2023-04-03T10:52:22;23.00;48.50
7077;DHT22;3579;48.956;9.154;2023-04-03T10:57:31;23.00;48.00
7077;DHT22;3579;48.956;9.154;2023-04-03T11:00:07;22.90;48.00
7077;DHT22;3579;48.956;9.154;2023-04-03T11:02:56;22.90;48.50
7077;DHT22;3579;48.956;9.154;2023-04-03T11:08:05;22.80;48.60
7077;DHT22;3579;48.956;9.154;2023-04-03T11:10:40;22.80;48.50
7077;DHT22;3579;48.956;9.154;2023-04-03T11:13:33;22.70;48.40
7077;DHT22;3579;48.956;9.154;2023-04-03T11:16:00;22.70;48.50
7077;DHT22;3579;48.956;9.154;2023-04-03T11:18:42;22.70;48.30
7077;DHT22;3579;48.956;9.154;2023-04-03T11:21:47;22.70;48.20
7077;DHT22;3579;48.956;9.154;2023-04-03T11:24:26;22.70;48.60
7077;DHT22;3579;48.956;9.154;2023-04-03T11:26:55;22.80;48.20
7077;DHT22;3579;48.956;9.154;2023-04-03T11:29:31;22.70;48.10
7077;DHT22;3579;48.956;9.154;2023-04-03T11:34:42;22.70;47.30
7077;DHT22;3579;48.956;9.154;2023-04-03T11:37:30;22.80;47.70
7077;DHT22;3579;48.956;9.154;2023-04-03T11:42:40;22.80;47.40
7077;DHT22;3579;48.956;9.154;2023-04-03T11:45:40;22.90;47.30
7077;DHT22;3579;48.956;9.154;2023-04-03T11:50:53;22.90;47.40
7077;DHT22;3579;48.956;9.154;2023-04-03T11:53:39;23.00;47.40
7077;DHT22;3579;48.956;9.154;2023-04-03T12:01:54;23.00;47.30
7077;DHT22;3579;48.956;9.154;2023-04-03T12:04:24;23.00;47.40
7077;DHT22;3579;48.956;9.154;2023-04-03T12:11:49;23.10;47.40
7077;DHT22;3579;48.956;9.154;2023-04-03T12:14:16;23.10;47.50
7077;DHT22;3579;48.956;9.154;2023-04-03T12:16:44;23.10;47.70
7077;DHT22;3579;48.956;9.154;2023-04-03T12:41:03;23.10;47.80
7077;DHT22;3579;48.956;9.154;2023-04-03T12:46:12;23.20;48.00
7077;DHT22;3579;48.956;9.154;2023-04-03T12:51:26;23.10;48.00
7077;DHT22;3579;48.956;9.154;2023-04-03T12:54:01;23.20;48.10
7077;DHT22;3579;48.956;9.154;2023-04-03T12:56:30;23.20;48.00
7077;DHT22;3579;48.956;9.154;2023-04-03T13:01:39;23.20;48.00
7077;DHT22;3579;48.956;9.154;2023-04-03T13:04:06;23.30;48.00
7077;DHT22;3579;48.956;9.154;2023-04-03T13:06:41;23.30;48.00
7077;DHT22;3579;48.956;9.154;2023-04-03T13:09:21;23.30;47.90
7077;DHT22;3579;48.956;9.154;2023-04-03T13:11:49;23.30;47.80
7077;DHT22;3579;48.956;9.154;2023-04-03T13:14:18;23.30;47.30
7077;DHT22;3579;48.956;9.154;2023-04-03T13:19:26;23.30;47.80
7077;DHT22;3579;48.956;9.154;2023-04-03T13:22:02;23.40;47.60
7077;DHT22;3579;48.956;9.154;2023-04-03T13:24:32;23.40;47.50
7077;DHT22;3579;48.956;9.154;2023-04-03T13:26:59;23.40;47.30
7077;DHT22;3579;48.956;9.154;2023-04-03T13:29:29;23.40;47.40
7077;DHT22;3579;48.956;9.154;2023-04-03T13:31:57;23.40;47.40
7077;DHT22;3579;48.956;9.154;2023-04-03T13:34:25;22.10;46.50
7077;DHT22;3579;48.956;9.154;2023-04-03T13:37:00;23.50;47.70
7077;DHT22;3579;48.956;9.154;2023-04-03T13:39:33;23.10;40.50
7077;DHT22;3579;48.956;9.154;2023-04-03T13:42:15;21.60;34.20
7077;DHT22;3579;48.956;9.154;2023-04-03T13:44:42;20.90;32.30
7077;DHT22;3579;48.956;9.154;2023-04-03T13:49:43;20.90;35.70
7077;DHT22;3579;48.956;9.154;2023-04-03T13:52:29;21.50;35.70
7077;DHT22;3579;48.956;9.154;2023-04-03T13:55:02;22.10;36.60
7077;DHT22;3579;48.956;9.154;2023-04-03T13:57:29;22.40;37.00
7077;DHT22;3579;48.956;9.154;2023-04-03T13:59:55;22.70;37.10
7077;DHT22;3579;48.956;9.154;2023-04-03T14:02:33;22.80;37.40
7077;DHT22;3579;48.956;9.154;2023-04-03T14:05:01;23.00;37.70
7077;DHT22;3579;48.956;9.154;2023-04-03T14:07:29;23.10;38.30
7077;DHT22;3579;48.956;9.154;2023-04-03T14:09:57;23.20;38.50
7077;DHT22;3579;48.956;9.154;2023-04-03T14:12:31;23.30;38.80
7077;DHT22;3579;48.956;9.154;2023-04-03T14:15:00;23.30;38.90
7077;DHT22;3579;48.956;9.154;2023-04-03T14:17:27;23.40;39.40
7077;DHT22;3579;48.956;9.154;2023-04-03T14:19:54;23.50;39.70
7077;DHT22;3579;48.956;9.154;2023-04-03T14:22:30;23.50;39.90
7077;DHT22;3579;48.956;9.154;2023-04-03T14:24:57;23.60;40.10
7077;DHT22;3579;48.956;9.154;2023-04-03T14:29:51;23.60;40.50
7077;DHT22;3579;48.956;9.154;2023-04-03T14:32:22;23.60;40.70
7077;DHT22;3579;48.956;9.154;2023-04-03T14:34:49;23.60;41.00
7077;DHT22;3579;48.956;9.154;2023-04-03T14:37:19;23.50;40.80
7077;DHT22;3579;48.956;9.154;2023-04-03T14:39:45;23.40;40.90
7077;DHT22;3579;48.956;9.154;2023-04-03T14:42:18;23.30;41.10
7077;DHT22;3579;48.956;9.154;2023-04-03T14:44:44;23.30;41.40
7077;DHT22;3579;48.956;9.154;2023-04-03T14:47:17;23.30;41.70
7077;DHT22;3579;48.956;9.154;2023-04-03T14:49:44;23.20;42.10
7077;DHT22;3579;48.956;9.154;2023-04-03T14:52:32;23.20;42.10
7077;DHT22;3579;48.956;9.154;2023-04-03T14:54:59;23.10;42.50
7077;DHT22;3579;48.956;9.154;2023-04-03T14:57:28;23.00;42.60
7077;DHT22;3579;48.956;9.154;2023-04-03T14:59:54;23.00;42.70
7077;DHT22;3579;48.956;9.154;2023-04-03T15:04:55;22.90;42.90
7077;DHT22;3579;48.956;9.154;2023-04-03T15:07:22;23.00;42.90
7077;DHT22;3579;48.956;9.154;2023-04-03T15:09:49;22.00;42.00
7077;DHT22;3579;48.956;9.154;2023-04-03T15:12:16;23.10;43.10
7077;DHT22;3579;48.956;9.154;2023-04-03T15:14:42;23.20;43.30
7077;DHT22;3579;48.956;9.154;2023-04-03T15:17:17;23.20;43.00
7077;DHT22;3579;48.956;9.154;2023-04-03T15:19:45;23.30;43.10
7077;DHT22;3579;48.956;9.154;2023-04-03T15:22:18;23.30;42.90
7077;DHT22;3579;48.956;9.154;2023-04-03T15:24:45;23.30;42.80
7077;DHT22;3579;48.956;9.154;2023-04-03T15:27:12;23.30;43.10
7077;DHT22;3579;48.956;9.154;2023-04-03T15:29:40;23.40;42.90
7077;DHT22;3579;48.956;9.154;2023-04-03T15:32:08;23.30;42.80
7077;DHT22;3579;48.956;9.154;2023-04-03T15:34:35;22.80;43.60
7077;DHT22;3579;48.956;9.154;2023-04-03T15:37:01;22.90;43.70
7077;DHT22;3579;48.956;9.154;2023-04-03T15:39:27;23.00;43.80
7077;DHT22;3579;48.956;9.154;2023-04-03T15:41:54;23.10;43.50
7077;DHT22;3579;48.956;9.154;2023-04-03T15:44:21;23.20;43.50
7077;DHT22;3579;48.956;9.154;2023-04-03T15:46:48;23.30;43.50
7077;DHT22;3579;48.956;9.154;2023-04-03T15:49:18;23.30;43.50
7077;DHT22;3579;48.956;9.154;2023-04-03T15:51:45;23.30;44.00
7077;DHT22;3579;48.956;9.154;2023-04-03T15:54:11;22.60;41.00
7077;DHT22;3579;48.956;9.154;2023-04-03T15:56:38;22.60;41.70
7077;DHT22;3579;48.956;9.154;2023-04-03T15:59:04;22.80;42.40
7077;DHT22;3579;48.956;9.154;2023-04-03T16:01:31;22.90;42.20
7077;DHT22;3579;48.956;9.154;2023-04-03T16:03:57;22.90;42.10
7077;DHT22;3579;48.956;9.154;2023-04-03T16:06:24;23.00;42.20
7077;DHT22;3579;48.956;9.154;2023-04-03T16:08:50;23.00;42.20
7077;DHT22;3579;48.956;9.154;2023-04-03T16:11:17;23.00;42.20
7077;DHT22;3579;48.956;9.154;2023-04-03T16:13:43;23.00;42.20
7077;DHT22;3579;48.956;9.154;2023-04-03T16:16:09;23.00;42.20
7077;DHT22;3579;48.956;9.154;2023-04-03T16:18:36;23.00;42.20
7077;DHT22;3579;48.956;9.154;2023-04-03T16:21:02;23.00;42.10
7077;DHT22;3579;48.956;9.154;2023-04-03T16:23:28;23.00;42.10
7077;DHT22;3579;48.956;9.154;2023-04-03T16:25:54;22.90;41.60
7077;DHT22;3579;48.956;9.154;2023-04-03T16:28:20;22.90;42.00
7077;DHT22;3579;48.956;9.154;2023-04-03T16:30:47;22.90;41.60
7077;DHT22;3579;48.956;9.154;2023-04-03T16:33:14;22.80;41.80
7077;DHT22;3579;48.956;9.154;2023-04-03T16:35:41;22.70;41.50
7077;DHT22;3579;48.956;9.154;2023-04-03T16:38:10;22.60;41.70
7077;DHT22;3579;48.956;9.154;2023-04-03T16:40:36;22.60;41.90
7077;DHT22;3579;48.956;9.154;2023-04-03T16:43:02;22.50;41.70
7077;DHT22;3579;48.956;9.154;2023-04-03T16:45:28;22.50;41.80
7077;DHT22;3579;48.956;9.154;2023-04-03T16:47:54;22.50;41.80
7077;DHT22;3579;48.956;9.154;2023-04-03T16:50:20;22.40;41.90
7077;DHT22;3579;48.956;9.154;2023-04-03T16:52:46;22.40;41.90
7077;DHT22;3579;48.956;9.154;2023-04-03T16:55:12;22.30;41.90
7077;DHT22;3579;48.956;9.154;2023-04-03T16:57:38;22.30;41.90
7077;DHT22;3579;48.956;9.154;2023-04-03T17:00:05;22.30;41.90
7077;DHT22;3579;48.956;9.154;2023-04-03T17:02:31;22.20;41.90
7077;DHT22;3579;48.956;9.154;2023-04-03T17:04:57;22.20;41.80
7077;DHT22;3579;48.956;9.154;2023-04-03T17:07:24;22.20;42.00
7077;DHT22;3579;48.956;9.154;2023-04-03T17:09:51;22.20;42.20
7077;DHT22;3579;48.956;9.154;2023-04-03T17:12:20;22.10;42.00
7077;DHT22;3579;48.956;9.154;2023-04-03T17:14:47;22.10;42.00
7077;DHT22;3579;48.956;9.154;2023-04-03T17:17:14;22.10;41.80
7077;DHT22;3579;48.956;9.154;2023-04-03T17:19:41;22.00;42.30
7077;DHT22;3579;48.956;9.154;2023-04-03T17:22:08;22.00;41.80
7077;DHT22;3579;48.956;9.154;2023-04-03T17:24:35;22.00;41.80
7077;DHT22;3579;48.956;9.154;2023-04-03T17:27:02;21.90;41.80
7077;DHT22;3579;48.956;9.154;2023-04-03T17:29:28;21.90;41.90
7077;DHT22;3579;48.956;9.154;2023-04-03T17:31:54;21.90;41.90
7077;DHT22;3579;48.956;9.154;2023-04-03T17:34:21;21.80;41.80
7077;DHT22;3579;48.956;9.154;2023-04-03T17:36:47;21.80;42.00
7077;DHT22;3579;48.956;9.154;2023-04-03T17:39:13;21.80;42.10
7077;DHT22;3579;48.956;9.154;2023-04-03T17:41:39;21.70;42.10
7077;DHT22;3579;48.956;9.154;2023-04-03T17:44:05;21.70;42.10
7077;DHT22;3579;48.956;9.154;2023-04-03T17:46:32;21.70;42.10
7077;DHT22;3579;48.956;9.154;2023-04-03T17:48:58;21.60;42.30
7077;DHT22;3579;48.956;9.154;2023-04-03T17:51:24;21.60;42.40
7077;DHT22;3579;48.956;9.154;2023-04-03T17:53:50;21.60;42.20
7077;DHT22;3579;48.956;9.154;2023-04-03T17:56:19;21.60;42.50
7077;DHT22;3579;48.956;9.154;2023-04-03T17:58:45;21.60;42.70
7077;DHT22;3579;48.956;9.154;2023-04-03T18:01:17;21.50;42.70
7077;DHT22;3579;48.956;9.154;2023-04-03T18:03:44;21.50;42.50
7077;DHT22;3579;48.956;9.154;2023-04-03T18:06:14;21.50;42.70
7077;DHT22;3579;48.956;9.154;2023-04-03T18:08:46;21.50;42.70
7077;DHT22;3579;48.956;9.154;2023-04-03T18:11:13;21.40;42.60
7077;DHT22;3579;48.956;9.154;2023-04-03T18:13:40;21.40;42.70